Terminal Aerodrome Forecast
Issued by NWS

Home | Current Version | Previous Version | Graphics & Text | Print | Product List | Glossary On
Versions: 1 2 3 4 5 6 7 8 9 10 11 12
212
FTUS43 KGRB 202032 AAA
TAFCWA
TAF AMD
KCWA 202032Z 2021/2118 27004KT P6SM OVC007
      TEMPO 2021/2024 SCT007 OVC012
     FM210000 30008KT P6SM OVC012
     FM210300 31011KT P6SM OVC015
     FM210600 32012KT P6SM OVC018
     FM211400 34012KT P6SM BKN025
      TEMPO 2115/2118 SCT025=

USA.gov is the U.S. government's official web portal to all federal, state and local government web resources and services.